KSVN/SVN METAR and TAF weather

Enter ICAO airport designator
Station Type Date Time Source
KSVN METAR 2021/10/20 05:56 UTC NOAA

KSVN 200556Z AUTO 00000KT 10SM CLR 12/10 A3020 RMK AO2 SLP230 T01230104 10176 20123 57007 $


Station Type Date Time Source
KSVN Decoded METAR 2021/10/20 05:56 UTC NOAA

Hunter U. S. Army Airfield , GA, United States (KSVN) 32-01N 081-09W
Oct 20, 2021 - 01:56 AM EDT / 2021.10.20 0556 UTC
Wind: Calm:0
Visibility: 10 mile(s):0
Sky conditions: clear
Temperature: 54.1 F (12.3 C)
Dew Point: 50.7 F (10.4 C)
Relative Humidity: 88%
Pressure (altimeter): 30.2 in. Hg (1022 hPa)
Pressure tendency: 0.02 inches (0.7 hPa) lower than three hours ago
ob: KSVN 200556Z AUTO 00000KT 10SM CLR 12/10 A3020 RMK AO2 SLP230 T01230104 10176 20123 57007
cycle: 6

Station Type Date Time Source
KSVN TAF 2021/10/20 04:03 UTC NOAA

TAF KSVN 200400Z 2004/2110 VRB06KT 9999 FEW250 QNH3019INS TX25/2020Z TN06/2012Z

Example: see airport list